Terminal Aerodrome Forecast
Issued by NWS

Home | Current Version | Previous Version | Text Only | Print | Product List | Glossary On
Versions: 1 2 3 4 5 6 7 8 9 10 11 12 13 14 15 16 17 18 19 20 21 22 23 24 25 26 27
000
FTUS43 KABR 180300 AAA
TAFMBG
TAF AMD
KMBG 180349Z 1804/1824 14013G20KT P6SM FEW100 SCT250
     FM180800 12018G26KT P6SM VCSH BKN080 BKN120
     FM181100 14020G28KT P6SM BKN150=

USA.gov is the U.S. government's official web portal to all federal, state and local government web resources and services.